createdAt,value
2019-01-30T11:10:50.815Z,25.70
2019-01-30T11:11:48.392Z,25.70
2019-01-30T11:12:48.377Z,25.63
2019-01-30T11:13:50.354Z,25.59
2019-01-30T11:14:48.630Z,25.59
2019-01-30T11:15:48.478Z,25.48
2019-01-30T11:16:49.427Z,25.55
2019-01-30T11:17:48.329Z,25.68
2019-01-30T11:18:48.278Z,25.78
2019-01-30T11:19:48.249Z,25.86
2019-01-30T11:20:48.332Z,25.86
2019-01-30T11:21:49.998Z,25.86
2019-01-30T11:22:48.360Z,25.86
2019-01-30T11:23:50.224Z,25.91
2019-01-30T11:24:50.595Z,25.91
2019-01-30T11:25:49.070Z,26.03
2019-01-30T11:26:49.121Z,25.96
2019-01-30T11:27:48.085Z,25.99
2019-01-30T11:28:48.265Z,25.99
2019-01-30T11:29:48.003Z,25.92
2019-01-30T11:30:48.043Z,25.93
2019-01-30T11:31:48.002Z,25.93
2019-01-30T11:32:48.077Z,25.91
2019-01-30T11:33:47.904Z,26.18
2019-01-30T11:34:47.905Z,26.01
2019-01-30T11:35:47.841Z,26.04
2019-01-30T11:36:47.882Z,26.06
2019-01-30T11:37:49.428Z,25.91
2019-01-30T11:38:47.823Z,25.91
2019-01-30T11:39:47.136Z,25.76
2019-01-30T11:40:47.734Z,25.89
2019-01-30T11:41:57.315Z,25.81
2019-01-30T11:42:47.654Z,25.86
2019-01-30T11:43:50.462Z,25.78
2019-01-30T11:44:47.674Z,25.78
2019-01-30T11:45:47.688Z,25.77
2019-01-30T11:46:47.603Z,25.77
2019-01-30T11:47:47.582Z,25.71
2019-01-30T11:48:56.220Z,25.77
2019-01-30T11:49:47.611Z,25.68
2019-01-30T11:50:49.384Z,25.68
2019-01-30T11:51:47.696Z,25.68
2019-01-30T11:52:47.564Z,25.63
2019-01-30T11:53:50.390Z,25.58
2019-01-30T11:54:46.851Z,25.62
2019-01-30T11:56:10.385Z,25.62
2019-01-30T11:56:47.338Z,25.63
2019-01-30T11:58:00.679Z,25.55
2019-01-30T11:58:47.423Z,25.56
2019-01-30T11:59:47.486Z,25.56
2019-01-30T12:00:47.298Z,25.56
2019-01-30T12:01:47.294Z,25.58
2019-01-30T12:02:48.338Z,25.56
2019-01-30T12:03:49.413Z,25.56
2019-01-30T12:04:47.215Z,25.43
2019-01-30T12:05:47.193Z,25.48
2019-01-30T12:06:47.181Z,25.55
2019-01-30T12:07:47.153Z,25.55
2019-01-30T12:08:47.363Z,25.56
2019-01-30T12:09:47.274Z,25.55
2019-01-30T12:10:47.633Z,25.55
2019-01-30T12:11:47.050Z,25.54
2019-01-30T12:12:47.064Z,25.55
2019-01-30T12:13:46.936Z,25.48
2019-01-30T12:14:46.957Z,25.44
2019-01-30T12:15:46.985Z,25.59
2019-01-30T12:16:46.961Z,25.49
2019-01-30T12:17:46.238Z,25.54
2019-01-30T12:18:46.872Z,25.49
2019-01-30T12:19:47.461Z,25.40
2019-01-30T12:20:46.913Z,25.48
2019-01-30T12:21:46.136Z,25.46
2019-01-30T12:22:47.017Z,25.46
2019-01-30T12:23:46.234Z,25.48
2019-01-30T12:24:46.083Z,25.41
2019-01-30T12:25:47.295Z,25.46
2019-01-30T12:26:47.288Z,25.49
2019-01-30T12:27:50.946Z,25.40
2019-01-30T12:28:47.742Z,25.51
2019-01-30T12:29:46.848Z,25.36
2019-01-30T12:30:46.552Z,25.41
2019-01-30T12:31:46.628Z,25.41
2019-01-30T12:32:46.551Z,25.34
2019-01-30T12:33:49.523Z,25.25
2019-01-30T12:34:46.693Z,25.29
2019-01-30T12:35:46.409Z,25.31
2019-01-30T12:36:47.825Z,25.36
2019-01-30T12:37:46.379Z,25.30
2019-01-30T12:38:46.387Z,25.24
2019-01-30T12:39:46.381Z,25.33
2019-01-30T12:40:47.822Z,25.24
2019-01-30T12:41:46.323Z,25.37
2019-01-30T12:42:46.429Z,25.19
2019-01-30T12:43:46.314Z,25.33
2019-01-30T12:44:46.224Z,25.29
2019-01-30T12:45:46.235Z,25.26
2019-01-30T12:46:46.384Z,25.37
2019-01-30T12:47:46.155Z,25.29
2019-01-30T12:48:48.816Z,25.31
2019-01-30T12:49:46.141Z,25.33
2019-01-30T12:50:46.276Z,25.33
2019-01-30T12:51:46.066Z,25.24
2019-01-30T12:52:46.102Z,25.25
2019-01-30T12:53:46.128Z,25.30
2019-01-30T12:54:45.413Z,25.29
2019-01-30T12:55:46.092Z,25.40
2019-01-30T12:56:46.562Z,25.29
2019-01-30T12:57:46.604Z,25.25
2019-01-30T12:58:46.093Z,25.25
2019-01-30T12:59:46.091Z,25.30
2019-01-30T13:00:45.898Z,25.25
2019-01-30T13:01:45.912Z,25.26
2019-01-30T13:03:02.105Z,25.26
